Latest Weather Observations for Point Stuart

IDD60901

Issued at 8:15 pm CST Wednesday 1 October 2014 (issued every 10 minutes, with the page automatically refreshed every 10 minutes)

About weather observations | Map of Darwin area stations | Latest observations for Darwin area | Other Formats
Station Details ID: 014254 Name: POINT STUART Lat: -12.24 Lon: 131.88 Height: 1.0 m
Data from the previous 72 hours. | See also: Recent months for locations in Northern Territory
Date/Time
CST
Tmp

°C
App
Tmp
°C
Dew
Point
°C
Rel
Hum
%
Delta-T

°C
Wind Press
QNH
hPa
Press
MSL
hPa
Rain
since
9 am
mm
Dir
 
Spd
km/h
Gust
km/h
Spd
kts
Gust
kts
01/08:00pm 27.4 28.5 20.5 66 4.5 N 15 26 8 14 1010.9 - -
01/07:30pm 27.5 28.4 20.1 64 4.8 N 15 28 8 15 1010.5 - -
01/07:00pm 27.8 27.8 19.8 61 5.2 N 19 32 10 17 1010.0 - -
01/06:30pm 28.0 28.0 19.8 61 5.3 N 19 32 10 17 1009.6 - -
01/06:00pm 28.8 28.9 20.0 59 5.8 NNE 19 33 10 18 1009.3 1009.3 -
01/05:30pm 29.6 29.2 19.3 54 6.7 N 20 35 11 19 1009.0 - -
01/05:00pm 30.0 29.6 19.4 53 6.9 N 20 35 11 19 1008.6 - -
01/04:30pm 30.7 30.3 18.8 49 7.7 N 19 32 10 17 1008.6 - -
01/04:00pm 32.1 32.1 19.0 45 8.5 N 17 28 9 15 1008.7 - -
01/03:30pm 31.9 31.9 18.1 43 8.9 N 15 24 8 13 1008.9 - -
01/03:00pm 32.0 31.5 17.8 42 9.1 N 17 26 9 14 1009.3 1009.3 -
01/02:30pm 32.0 31.5 17.8 42 9.1 N 17 30 9 16 1009.9 - -
01/02:00pm 31.5 30.5 16.6 40 9.4 N 17 26 9 14 1010.4 - -
01/01:30pm 32.8 32.1 17.4 39 9.8 N 17 28 9 15 1011.1 - -
01/01:00pm 31.4 30.0 16.6 41 9.3 NNE 19 28 10 15 1011.6 - -
01/12:30pm 31.3 29.7 16.5 41 9.3 NNE 20 30 11 16 1012.3 - -
01/12:00pm 31.2 29.4 17.9 45 8.5 NE 24 33 13 18 1013.2 1013.2 -
01/11:30am 30.9 28.8 17.2 43 8.7 NNE 24 32 13 17 1013.9 - -
01/11:00am 30.3 28.8 17.7 46 8.0 NNE 22 32 12 17 1014.2 - -
01/10:30am 28.7 28.5 19.3 56 6.1 NE 19 30 10 16 1014.4 - -
01/10:00am 28.4 28.4 20.1 60 5.4 ENE 20 30 11 16 1014.6 - -
01/09:30am 28.2 28.0 20.5 63 5.1 ENE 22 28 12 15 1014.6 - -
01/09:00am 28.0 27.7 20.3 63 5.1 ENE 22 30 12 16 1014.3 1014.3 -
01/08:30am 27.9 27.4 19.9 61 5.2 ENE 22 28 12 15 1014.1 - -
01/08:00am 27.1 26.7 20.2 66 4.5 ENE 22 28 12 15 1013.8 - -
01/07:30am 25.3 27.9 22.0 82 2.2 NNE 11 17 6 9 1013.5 - -
01/07:00am 21.4 25.7 21.1 98 0.2 CALM 0 0 0 0 1012.9 - -
01/06:30am 20.7 23.4 20.2 97 0.3 N 6 7 3 4 1012.6 - -
01/06:00am 20.8 24.4 19.8 94 0.6 CALM 0 6 0 3 1012.2 1012.2 -
01/05:30am 21.1 24.8 19.9 93 0.8 N 0 4 0 2 1012.1 - -
01/05:00am 21.6 24.6 20.1 91 1.0 NE 4 6 2 3 1011.9 - -
01/04:30am 22.2 25.8 19.7 86 1.6 NE 0 0 0 0 1011.7 - -
01/04:00am 23.1 26.9 20.2 84 1.9 CALM 0 2 0 1 1011.8 - -
01/03:30am 24.3 26.9 20.4 79 2.5 NE 7 11 4 6 1012.1 - -
01/03:00am 25.8 27.3 20.6 73 3.4 NE 13 17 7 9 1012.2 1012.2 -
01/02:30am 25.9 27.5 20.7 73 3.4 NE 13 19 7 10 1012.3 - -
01/02:00am 26.3 27.3 21.1 73 3.4 NE 17 24 9 13 1012.5 - -
01/01:30am 26.5 27.6 21.3 73 3.4 NE 17 24 9 13 1012.9 - -
01/01:00am 26.3 27.8 21.3 74 3.3 NNE 15 20 8 11 1013.0 - -
01/12:30am 26.5 27.4 20.8 71 3.8 NNE 17 24 9 13 1013.2 - -
01/12:00am 26.6 28.3 20.9 71 3.8 NNE 13 20 7 11 1013.5 1013.5 -
 
Date/Time
CST
Tmp

°C
App
Tmp
°C
Dew
Point
°C
Rel
Hum
%
Delta-T

°C
Wind Press
QNH
hPa
Press
MSL
hPa
Rain
since
9 am
mm
Dir
 
Spd
km/h
Gust
km/h
Spd
kts
Gust
kts
30/11:30pm 26.5 27.5 21.0 72 3.6 NNE 17 24 9 13 1013.0 - -
30/11:00pm 26.5 27.3 21.3 73 3.4 NNE 19 26 10 14 1013.0 - -
30/10:30pm 26.7 27.0 20.5 69 4.1 NNE 19 28 10 15 1012.8 - -
30/10:00pm 26.8 29.2 21.5 72 3.5 N 11 19 6 10 1012.7 - -
30/09:30pm 26.9 28.8 21.4 72 3.7 N 13 24 7 13 1012.4 - -
30/09:00pm 27.0 28.6 21.5 72 3.7 N 15 24 8 13 1012.2 1012.2 -
30/08:30pm 27.2 28.1 20.8 68 4.2 N 17 28 9 15 1011.9 - -
30/08:00pm 27.4 27.7 20.5 66 4.5 NNE 19 32 10 17 1011.5 - -
30/07:30pm 27.2 27.5 20.3 66 4.5 N 19 28 10 15 1011.1 - -
30/07:00pm 27.7 28.3 20.3 64 4.9 N 17 30 9 16 1010.7 - -
30/06:30pm 28.2 28.7 20.0 61 5.4 NNE 17 26 9 14 1010.1 - -
30/06:00pm 28.8 29.9 19.7 58 5.9 N 13 24 7 13 1009.7 1009.7 -
30/05:30pm 29.3 29.7 19.9 57 6.2 N 17 30 9 16 1009.3 - -
30/05:00pm 29.9 30.0 19.9 55 6.6 N 19 28 10 15 1009.3 - -
30/04:30pm 30.2 31.0 19.9 54 6.8 N 15 28 8 15 1009.4 - -
30/04:00pm 30.7 30.8 20.0 52 7.1 N 19 32 10 17 1009.6 - -
30/03:30pm 30.7 30.8 20.0 52 7.1 N 19 30 10 16 1009.9 - -
30/03:00pm 31.5 32.6 20.4 51 7.4 N 15 26 8 14 1010.3 1010.3 -
30/02:30pm 31.2 31.5 19.5 49 7.7 N 17 24 9 13 1010.6 - -
30/02:00pm 31.3 31.4 18.3 46 8.4 N 15 24 8 13 1010.9 - -
30/01:30pm 31.1 30.7 18.1 46 8.4 N 17 26 9 14 1011.4 - -
30/01:00pm 31.8 32.6 19.8 49 7.9 N 15 24 8 13 1011.9 - -
30/12:30pm 31.1 30.6 19.1 48 7.8 NNE 20 32 11 17 1012.7 - -
30/12:00pm 31.3 30.4 18.3 46 8.4 NNE 20 33 11 18 1013.4 1013.4 -
30/11:30am 30.9 31.1 20.2 53 7.1 NNE 19 33 10 18 1013.8 - -
30/11:00am 30.3 30.5 20.5 55 6.5 NE 20 30 11 16 1014.2 - -
30/10:30am 29.4 29.6 20.5 58 5.9 ENE 20 30 11 16 1014.5 - -
30/10:00am 29.9 30.7 21.8 62 5.5 ENE 20 32 11 17 1014.7 - -
30/09:30am 29.1 30.4 21.6 64 5.0 ENE 17 24 9 13 1014.8 - -
30/09:00am 29.0 31.3 22.0 66 4.7 E 13 22 7 12 1014.7 1014.7 -
30/08:30am 28.1 29.7 21.4 67 4.5 E 15 19 8 10 1014.6 - -
30/08:00am 27.4 30.7 21.9 72 3.7 NNE 7 9 4 5 1014.4 - -
30/07:30am 25.4 29.0 22.3 83 2.1 NNE 7 11 4 6 1014.1 - -
30/07:00am 23.8 27.4 22.1 90 1.1 NNE 6 7 3 4 1013.8 - -
30/06:30am 23.4 26.7 21.5 89 1.3 NNE 6 9 3 5 1013.5 - -
30/06:00am 24.0 27.6 21.3 85 1.8 NNE 4 6 2 3 1013.2 1013.2 -
30/05:30am 24.8 28.2 21.7 83 2.1 NNE 6 7 3 4 1013.0 - -
30/05:00am 24.8 27.8 21.9 84 1.9 NNE 9 11 5 6 1012.8 - -
30/04:30am 25.3 29.0 21.4 79 2.6 NNE 4 7 2 4 1012.5 - -
30/04:00am 25.3 28.0 21.4 79 2.6 NNE 9 11 5 6 1012.4 - -
30/03:30am 25.6 29.1 21.1 76 3.0 NNE 4 7 2 4 1012.4 - -
30/03:00am 25.6 28.7 21.1 76 3.0 NNE 6 7 3 4 1012.2 1012.2 -
30/02:30am 25.7 28.5 20.9 75 3.2 NNE 7 11 4 6 1012.2 - -
30/02:00am 25.7 28.5 20.9 75 3.2 NNE 7 11 4 6 1012.3 - -
30/01:30am 26.1 28.2 20.9 73 3.4 NNE 11 15 6 8 1012.4 - -
30/01:00am 26.4 28.0 20.7 71 3.7 NNE 13 20 7 11 1012.7 - -
30/12:30am 26.5 29.6 21.5 74 3.3 N 7 13 4 7 1012.8 - -
30/12:00am 26.5 29.0 21.7 75 3.2 N 11 17 6 9 1012.9 1012.9 -
 
Date/Time
CST
Tmp

°C
App
Tmp
°C
Dew
Point
°C
Rel
Hum
%
Delta-T

°C
Wind Press
QNH
hPa
Press
MSL
hPa
Rain
since
9 am
mm
Dir
 
Spd
km/h
Gust
km/h
Spd
kts
Gust
kts
29/11:30pm 26.8 29.1 21.3 72 3.7 N 11 15 6 8 1012.9 - -
29/11:00pm 26.9 28.6 21.0 70 3.9 N 13 26 7 14 1012.6 - -
29/10:30pm 26.9 29.5 21.2 71 3.8 N 9 15 5 8 1012.3 - -
29/10:00pm 26.6 29.1 21.8 75 3.2 N 11 15 6 8 1012.2 - -
29/09:30pm 26.6 29.0 20.9 71 3.8 N 9 13 5 7 1011.7 - -
29/09:00pm 26.9 29.1 21.2 71 3.8 N 11 15 6 8 1011.5 1011.5 -
29/08:30pm 27.0 29.2 21.1 70 3.9 N 11 17 6 9 1011.1 - -
29/08:00pm 27.2 29.2 20.8 68 4.2 N 11 15 6 8 1010.7 - -
29/07:30pm 27.4 29.5 20.2 65 4.7 N 9 19 5 10 1010.4 - -
29/07:00pm 28.0 29.9 19.8 61 5.3 N 9 17 5 9 1010.1 - -
29/06:30pm 28.7 30.3 19.1 56 6.2 N 9 15 5 8 1009.9 - -
29/06:00pm 29.8 30.7 18.3 50 7.4 N 11 20 6 11 1009.6 1009.6 -
29/05:30pm 30.5 30.5 18.2 47 7.9 N 15 22 8 12 1009.2 - -
29/05:00pm 31.2 31.6 18.2 46 8.4 N 13 24 7 13 1009.0 - -
29/04:30pm 31.6 31.4 18.6 46 8.4 N 17 26 9 14 1009.0 - -
29/04:00pm 31.7 31.8 18.3 45 8.6 NNW 15 24 8 13 1009.1 - -
29/03:30pm 32.3 32.8 19.2 46 8.6 N 15 24 8 13 1009.4 - -
29/03:00pm 32.0 31.9 17.8 42 9.1 N 15 20 8 11 1009.6 1009.6 -
29/02:30pm 32.6 33.9 20.2 48 8.2 NNW 13 20 7 11 1010.1 - -
29/02:00pm 31.5 32.2 18.8 46 8.2 NNW 13 20 7 11 1010.7 - -
29/01:30pm 31.5 32.3 19.8 49 7.7 NNW 15 26 8 14 1011.2 - -
29/01:00pm 31.0 31.3 18.7 48 8.0 N 15 22 8 12 1011.9 - -
29/12:30pm 30.8 31.1 19.5 51 7.4 NNE 17 24 9 13 1012.7 - -
29/12:00pm 29.5 31.2 20.1 57 6.2 E 11 19 6 10 1013.1 1013.1 -
29/11:30am 30.2 31.3 19.6 53 6.9 NNE 13 20 7 11 1013.5 - -
29/11:00am 30.7 31.4 19.7 52 7.2 NE 15 20 8 11 1013.8 - -
29/10:30am 29.0 30.3 20.2 59 5.8 NNE 13 20 7 11 1013.9 - -
29/10:00am 29.6 31.2 20.7 58 5.9 NNE 13 20 7 11 1013.9 - -
29/09:30am 29.6 31.2 20.7 58 5.9 NNE 13 24 7 13 1013.8 - -
29/09:00am 28.8 30.5 21.0 62 5.2 NNE 13 20 7 11 1013.8 1013.8 -
29/08:30am 28.5 30.1 20.8 63 5.1 NNE 13 19 7 10 1013.5 - -
29/08:00am 27.6 29.8 20.4 65 4.7 N 9 17 5 9 1013.4 - -
29/07:30am 26.2 29.1 21.0 73 3.4 N 7 11 4 6 1013.2 - -
29/07:00am 24.9 27.6 20.6 77 2.8 N 7 17 4 9 1012.9 - -
29/06:30am 23.7 26.1 20.8 84 1.9 N 9 11 5 6 1012.4 - -
29/06:00am 22.3 24.5 20.4 89 1.2 N 9 13 5 7 1012.0 1012.0 -
29/05:30am 21.5 23.6 19.4 88 1.3 N 7 9 4 5 1011.6 - -
29/05:00am 21.6 23.8 19.5 88 1.3 N 7 9 4 5 1011.2 - -
29/04:30am 21.6 23.8 19.2 86 1.5 N 6 7 3 4 1010.9 - -
29/04:00am 21.6 23.8 19.2 86 1.5 N 6 9 3 5 1010.7 - -
29/03:30am 22.1 24.4 19.5 85 1.7 N 6 7 3 4 1010.9 - -
29/03:00am 22.5 24.7 19.3 82 2.0 N 6 7 3 4 1011.1 1011.1 -
29/02:30am 23.0 25.1 19.0 78 2.5 N 6 9 3 5 1011.5 - -
29/02:00am 24.3 26.4 19.4 74 3.1 N 7 9 4 5 1011.6 - -
29/01:30am 24.7 27.5 20.8 79 2.6 N 7 11 4 6 1011.8 - -
29/01:00am 24.6 27.1 20.3 77 2.8 N 7 9 4 5 1012.1 - -
29/12:30am 25.1 27.7 20.1 74 3.2 N 6 9 3 5 1012.4 - -
29/12:00am 25.8 28.0 20.4 72 3.5 NW 9 13 5 7 1012.3 1012.3 -
 
Date/Time
CST
Tmp

°C
App
Tmp
°C
Dew
Point
°C
Rel
Hum
%
Delta-T

°C
Wind Press
QNH
hPa
Press
MSL
hPa
Rain
since
9 am
mm
Dir
 
Spd
km/h
Gust
km/h
Spd
kts
Gust
kts
28/11:30pm 26.0 28.9 21.7 77 2.9 N 9 13 5 7 1012.5 - -
28/11:00pm 26.6 29.0 21.6 74 3.3 N 11 19 6 10 1012.5 - -
28/10:30pm 27.0 29.0 21.5 72 3.7 N 13 20 7 11 1012.4 - -
28/10:00pm 27.2 30.1 22.4 75 3.2 N 11 19 6 10 1012.1 - -
28/09:30pm 26.9 29.6 20.7 69 4.1 N 7 13 4 7 1011.7 - -
28/09:00pm 27.0 29.5 20.3 66 4.4 N 7 13 4 7 1011.1 1011.1 -
28/08:30pm 27.4 30.7 21.9 72 3.7 N 7 11 4 6 1010.5 - -

Latest Capital City Observations: Canberra | Sydney | Melbourne | Brisbane | Adelaide | Perth | Hobart | Darwin

Other Formats:

Comma delimited format used in spreadsheet applications
http://www.bom.gov.au/fwo/IDD60901/IDD60901.94127.axf

JavaScript Object Notation format (JSON) in row-major order
http://www.bom.gov.au/fwo/IDD60901/IDD60901.94127.json